createdAt,value
2022-08-20T00:02:17.414Z,99721.16
2022-08-20T00:05:06.117Z,99721.72
2022-08-20T00:07:54.178Z,99722.56
2022-08-20T00:10:45.148Z,99714.75
2022-08-20T00:13:39.218Z,99708.28
2022-08-20T00:16:32.791Z,99708.06
2022-08-20T00:19:23.566Z,99718.06
2022-08-20T00:22:15.223Z,99715.38
2022-08-20T00:25:03.436Z,99718.59
2022-08-20T00:27:51.585Z,99721.91
2022-08-20T00:30:41.241Z,99722.25
2022-08-20T00:33:29.322Z,99726.97
2022-08-20T00:36:18.969Z,99725.72
2022-08-20T00:39:07.077Z,99728.16
2022-08-20T00:41:55.112Z,99728.16
2022-08-20T00:44:46.520Z,99732.69
2022-08-20T00:47:34.796Z,99732.53
2022-08-20T00:50:27.734Z,99723.50
2022-08-20T00:53:19.171Z,99730.38
2022-08-20T00:56:08.506Z,99734.56
2022-08-20T00:58:57.299Z,99740.66
2022-08-20T01:01:55.229Z,99744.38
2022-08-20T01:04:47.535Z,99749.94
2022-08-20T01:07:36.446Z,99748.44
2022-08-20T01:10:29.640Z,99744.91
2022-08-20T01:13:23.631Z,99745.66
2022-08-20T01:16:19.749Z,99752.13
2022-08-20T01:19:29.444Z,99749.41
2022-08-20T01:22:43.555Z,99753.78
2022-08-20T01:25:42.065Z,99757.84
2022-08-20T01:28:35.270Z,99758.47
2022-08-20T01:31:25.542Z,99756.66
2022-08-20T01:34:15.796Z,99732.47
2022-08-20T01:37:04.220Z,99719.50
2022-08-20T01:39:52.266Z,99738.09
2022-08-20T01:42:58.827Z,99765.34
2022-08-20T01:45:47.818Z,99766.63
2022-08-20T01:48:38.770Z,99761.16
2022-08-20T01:51:30.782Z,99768.53
2022-08-20T01:54:18.902Z,99771.31
2022-08-20T01:57:12.901Z,99770.28
2022-08-20T02:00:03.026Z,99772.53
2022-08-20T02:02:53.561Z,99764.69
2022-08-20T02:05:42.017Z,99765.19
2022-08-20T02:08:33.131Z,99766.13
2022-08-20T02:11:21.308Z,99770.38
2022-08-20T02:14:12.100Z,99769.84
2022-08-20T02:17:01.509Z,99777.31
2022-08-20T02:19:53.825Z,99785.34
2022-08-20T02:22:50.035Z,99780.31
2022-08-20T02:25:41.124Z,99789.03
2022-08-20T02:28:29.677Z,99794.03
2022-08-20T02:31:19.109Z,99791.59
2022-08-20T02:34:21.700Z,99765.34
2022-08-20T02:37:14.458Z,99786.50
2022-08-20T02:40:02.631Z,99786.75
2022-08-20T02:42:50.822Z,99784.63
2022-08-20T02:45:43.815Z,99778.63
2022-08-20T02:48:33.548Z,99782.88
2022-08-20T02:51:30.569Z,99789.91
2022-08-20T02:54:18.778Z,99791.13
2022-08-20T02:57:12.896Z,99781.53
2022-08-20T03:00:02.047Z,99782.88
2022-08-20T03:02:50.409Z,99778.75
2022-08-20T03:05:40.441Z,99783.66
2022-08-20T03:08:30.394Z,99782.00
2022-08-20T03:11:19.275Z,99780.88
2022-08-20T03:14:07.359Z,99783.22
2022-08-20T03:16:55.500Z,99795.41
2022-08-20T03:19:43.530Z,99787.38
2022-08-20T03:22:31.556Z,99788.47
2022-08-20T03:25:21.495Z,99785.06
2022-08-20T03:28:10.148Z,99783.38
2022-08-20T03:30:59.339Z,99787.84
2022-08-20T03:33:52.788Z,99784.72
2022-08-20T03:36:41.849Z,99785.41
2022-08-20T03:39:29.883Z,99785.72
2022-08-20T03:42:19.282Z,99783.72
2022-08-20T03:45:09.173Z,99789.63
2022-08-20T03:47:57.928Z,99795.69
2022-08-20T03:50:48.217Z,99789.09
2022-08-20T03:53:36.284Z,99784.38
2022-08-20T03:56:24.410Z,99787.16
2022-08-20T03:59:13.764Z,99791.22
2022-08-20T04:02:02.243Z,99789.19
2022-08-20T04:04:50.308Z,99793.22
2022-08-20T04:07:38.675Z,99789.28
2022-08-20T04:10:27.007Z,99784.50
2022-08-20T04:13:19.589Z,99779.94
2022-08-20T04:16:14.461Z,99778.38
2022-08-20T04:19:05.038Z,99781.94
2022-08-20T04:21:53.123Z,99779.38
2022-08-20T04:24:41.673Z,99786.84
2022-08-20T04:27:29.871Z,99790.09
2022-08-20T04:30:19.671Z,99787.50
2022-08-20T04:33:09.459Z,99788.75
2022-08-20T04:36:00.849Z,99790.31
2022-08-20T04:38:50.928Z,99787.50
2022-08-20T04:41:39.278Z,99788.75
2022-08-20T04:44:27.494Z,99795.34
2022-08-20T04:47:24.683Z,99764.91
2022-08-20T04:50:24.834Z,99755.66
2022-08-20T04:53:20.694Z,99807.28
2022-08-20T04:56:12.181Z,99801.03
2022-08-20T04:59:02.244Z,99801.94
2022-08-20T05:01:50.247Z,99800.47
2022-08-20T05:04:38.584Z,99802.72
2022-08-20T05:07:27.908Z,99808.31
2022-08-20T05:10:18.829Z,99811.75
2022-08-20T05:13:07.222Z,99808.84
2022-08-20T05:15:56.099Z,99771.31
2022-08-20T05:18:45.236Z,99830.06
2022-08-20T05:21:40.726Z,99815.22
2022-08-20T05:24:30.181Z,99838.09
2022-08-20T05:27:24.613Z,99836.31
2022-08-20T05:30:13.539Z,99840.59
2022-08-20T05:33:03.320Z,99845.50
2022-08-20T05:35:52.791Z,99841.59
2022-08-20T05:38:40.775Z,99845.81
2022-08-20T05:41:30.718Z,99849.41
2022-08-20T05:44:19.816Z,99845.91
2022-08-20T05:47:07.909Z,99857.53
2022-08-20T05:49:56.523Z,99861.31
2022-08-20T05:52:45.401Z,99853.59
2022-08-20T05:55:33.570Z,99850.03
2022-08-20T05:58:25.546Z,99867.22
2022-08-20T06:01:13.641Z,99868.34
2022-08-20T06:04:19.323Z,99880.75
2022-08-20T06:07:08.263Z,99871.63
2022-08-20T06:09:56.406Z,99868.84
2022-08-20T06:12:45.448Z,99863.91
2022-08-20T06:15:35.628Z,99862.91
2022-08-20T06:18:28.439Z,99858.78
2022-08-20T06:21:16.977Z,99859.47
2022-08-20T06:24:06.629Z,99863.38
2022-08-20T06:26:56.924Z,99869.56
2022-08-20T06:29:45.735Z,99870.59
2022-08-20T06:32:35.145Z,99871.78
2022-08-20T06:35:23.544Z,99878.38
2022-08-20T06:38:12.535Z,99884.56
2022-08-20T06:41:00.584Z,99882.63
2022-08-20T06:43:48.612Z,99879.22
2022-08-20T06:46:36.942Z,99884.28
2022-08-20T06:49:26.372Z,99874.09
2022-08-20T06:52:17.262Z,99884.28
2022-08-20T06:55:07.838Z,99885.56
2022-08-20T06:58:00.410Z,99894.19
2022-08-20T07:00:48.927Z,99891.25
2022-08-20T07:03:38.001Z,99890.00
2022-08-20T07:06:28.518Z,99858.09
2022-08-20T07:09:16.625Z,99884.59
2022-08-20T07:12:05.214Z,99888.00
2022-08-20T07:14:55.111Z,99883.47
2022-08-20T07:17:43.760Z,99843.91
2022-08-20T07:20:33.938Z,99893.00
2022-08-20T07:23:23.357Z,99884.69
2022-08-20T07:26:11.416Z,99894.53
2022-08-20T07:28:59.720Z,99890.56
2022-08-20T07:32:05.161Z,99901.13
2022-08-20T07:34:53.698Z,99901.44
2022-08-20T07:37:43.801Z,99901.66
2022-08-20T07:40:35.978Z,99897.22
2022-08-20T07:43:24.557Z,99903.63
2022-08-20T07:46:13.676Z,99911.44
2022-08-20T07:49:02.136Z,99912.69
2022-08-20T07:51:50.130Z,99914.00
2022-08-20T07:54:38.259Z,99913.94
2022-08-20T07:57:27.541Z,99915.88
2022-08-20T08:00:17.392Z,99911.13
2022-08-20T08:03:06.168Z,99912.34
2022-08-20T08:05:54.646Z,99909.50
2022-08-20T08:08:43.598Z,99918.69
2022-08-20T08:11:34.487Z,99920.09
2022-08-20T08:14:28.930Z,99916.03
2022-08-20T08:17:18.925Z,99919.47
2022-08-20T08:20:09.062Z,99926.69
2022-08-20T08:22:58.782Z,99913.16
2022-08-20T08:25:47.112Z,99913.63
2022-08-20T08:28:36.898Z,99921.84
2022-08-20T08:31:26.627Z,99917.84
2022-08-20T08:34:14.738Z,99919.34
2022-08-20T08:37:03.163Z,99918.19
2022-08-20T08:39:51.529Z,99920.72
2022-08-20T08:42:44.693Z,99909.19
2022-08-20T08:45:52.054Z,99912.34
2022-08-20T08:48:44.356Z,99923.22
2022-08-20T08:51:39.008Z,99919.41
2022-08-20T08:54:31.265Z,99917.22
2022-08-20T08:57:19.533Z,99918.88
2022-08-20T09:00:13.558Z,99908.34
2022-08-20T09:03:04.778Z,99922.53
2022-08-20T09:06:02.647Z,99920.50
2022-08-20T09:08:53.698Z,99920.28
2022-08-20T09:11:48.035Z,99923.91
2022-08-20T09:14:37.200Z,99928.38
2022-08-20T09:17:25.844Z,99918.78
2022-08-20T09:20:13.985Z,99916.28
2022-08-20T09:23:06.374Z,99916.91
2022-08-20T09:25:54.412Z,99920.03
2022-08-20T09:28:42.427Z,99920.66
2022-08-20T09:31:30.557Z,99920.22
2022-08-20T09:34:18.818Z,99921.56
2022-08-20T09:37:06.977Z,99929.09
2022-08-20T09:39:57.308Z,99928.13
2022-08-20T09:42:45.398Z,99922.22
2022-08-20T09:45:33.692Z,99923.16
2022-08-20T09:48:21.714Z,99920.97
2022-08-20T09:51:20.249Z,99924.41
2022-08-20T09:54:08.296Z,99919.38
2022-08-20T09:56:59.038Z,99924.44
2022-08-20T09:59:51.909Z,99911.50
2022-08-20T10:02:40.166Z,99919.72
2022-08-20T10:05:28.188Z,99911.19
2022-08-20T10:08:16.727Z,99909.44
2022-08-20T10:11:05.232Z,99907.34
2022-08-20T10:13:54.555Z,99910.97
2022-08-20T10:16:42.565Z,99905.91
2022-08-20T10:19:32.187Z,99912.88
2022-08-20T10:22:20.215Z,99906.81
2022-08-20T10:25:09.383Z,99903.75
2022-08-20T10:27:58.610Z,99898.38
2022-08-20T10:30:47.980Z,99896.00
2022-08-20T10:33:36.514Z,99894.59
2022-08-20T10:36:24.441Z,99899.31
2022-08-20T10:39:12.834Z,99896.78
2022-08-20T10:42:00.861Z,99892.41
2022-08-20T10:44:48.964Z,99901.34
2022-08-20T10:47:38.608Z,99903.41
2022-08-20T10:50:30.308Z,99894.06
2022-08-20T10:53:19.296Z,99894.19
2022-08-20T10:56:08.002Z,99891.66
2022-08-20T10:58:56.005Z,99880.31
2022-08-20T11:01:44.166Z,99876.72
2022-08-20T11:04:33.542Z,99871.78
2022-08-20T11:07:50.549Z,99877.03
2022-08-20T11:10:35.872Z,99872.28
2022-08-20T11:13:24.063Z,99874.09
2022-08-20T11:16:12.109Z,99876.31
2022-08-20T11:19:00.110Z,99886.47
2022-08-20T11:21:50.640Z,99867.81
2022-08-20T11:24:39.410Z,99851.25
2022-08-20T11:27:29.792Z,99856.19
2022-08-20T11:30:20.411Z,99846.22
2022-08-20T11:33:08.868Z,99840.19
2022-08-20T11:35:57.081Z,99854.50
2022-08-20T11:38:46.451Z,99854.13
2022-08-20T11:41:34.521Z,99859.53
2022-08-20T11:44:22.664Z,99868.25
2022-08-20T11:47:20.158Z,99857.53
2022-08-20T11:50:11.688Z,99857.34
2022-08-20T11:53:01.603Z,99855.28
2022-08-20T11:55:51.236Z,99850.09
2022-08-20T11:58:39.249Z,99848.78
2022-08-20T12:01:27.473Z,99852.16
2022-08-20T12:04:15.460Z,99846.41
2022-08-20T12:07:10.261Z,99843.84
2022-08-20T12:09:58.251Z,99840.09
2022-08-20T12:12:47.654Z,99843.00
2022-08-20T12:15:36.455Z,99847.34
2022-08-20T12:18:27.049Z,99840.22
2022-08-20T12:21:15.850Z,99847.19
2022-08-20T12:24:04.080Z,99830.47
2022-08-20T12:26:52.074Z,99827.75
2022-08-20T12:29:43.257Z,99823.97
2022-08-20T12:32:33.146Z,99828.16
2022-08-20T12:35:21.323Z,99825.81
2022-08-20T12:38:09.321Z,99820.91
2022-08-20T12:40:57.371Z,99820.41
2022-08-20T12:43:45.366Z,99825.06
2022-08-20T12:46:34.692Z,99822.75
2022-08-20T12:49:22.680Z,99825.09
2022-08-20T12:52:10.803Z,99815.03
2022-08-20T12:54:59.959Z,99815.50
2022-08-20T12:57:49.916Z,99814.16
2022-08-20T13:00:43.308Z,99806.00
2022-08-20T13:03:32.691Z,99816.50
2022-08-20T13:06:28.876Z,99803.69
2022-08-20T13:09:17.880Z,99803.63
2022-08-20T13:12:06.288Z,99768.72
2022-08-20T13:14:54.331Z,99804.13
2022-08-20T13:17:42.927Z,99797.41
2022-08-20T13:20:34.140Z,99792.16
2022-08-20T13:23:22.839Z,99785.25
2022-08-20T13:26:10.888Z,99781.53
2022-08-20T13:28:58.923Z,99780.72
2022-08-20T13:31:48.780Z,99779.41
2022-08-20T13:34:36.783Z,99780.97
2022-08-20T13:37:29.890Z,99785.84
2022-08-20T13:40:18.757Z,99785.91
2022-08-20T13:43:11.736Z,99777.56
2022-08-20T13:46:00.211Z,99786.16
2022-08-20T13:48:48.246Z,99780.97
2022-08-20T13:51:36.308Z,99783.69
2022-08-20T13:54:30.175Z,99782.75
2022-08-20T13:57:20.350Z,99771.72
2022-08-20T14:00:11.871Z,99775.81
2022-08-20T14:03:00.339Z,99767.59
2022-08-20T14:05:48.478Z,99769.91
2022-08-20T14:08:36.877Z,99750.00
2022-08-20T14:11:26.361Z,99769.75
2022-08-20T14:14:14.398Z,99759.34
2022-08-20T14:17:16.404Z,99758.81
2022-08-20T14:20:08.585Z,99759.06
2022-08-20T14:22:58.400Z,99769.34
2022-08-20T14:25:49.284Z,99765.44
2022-08-20T14:28:38.589Z,99761.66
2022-08-20T14:31:26.551Z,99766.00
2022-08-20T14:34:14.612Z,99763.81
2022-08-20T14:37:12.093Z,99748.28
2022-08-20T14:40:02.128Z,99772.00
2022-08-20T14:42:51.402Z,99775.66
2022-08-20T14:45:41.286Z,99773.59
2022-08-20T14:48:29.304Z,99761.00
2022-08-20T14:51:17.319Z,99769.75
2022-08-20T14:54:05.742Z,99773.59
2022-08-20T14:56:54.787Z,99768.09
2022-08-20T14:59:43.520Z,99771.34
2022-08-20T15:02:32.872Z,99761.59
2022-08-20T15:05:21.062Z,99758.00
2022-08-20T15:08:10.499Z,99747.47
2022-08-20T15:10:59.308Z,99733.69
2022-08-20T15:13:47.319Z,99747.66
2022-08-20T15:16:35.818Z,99754.09
2022-08-20T15:19:25.173Z,99729.31
2022-08-20T15:22:13.190Z,99742.19
2022-08-20T15:25:01.233Z,99732.09
2022-08-20T15:27:49.819Z,99732.84
2022-08-20T15:30:39.756Z,99727.47
2022-08-20T15:33:27.841Z,99734.50
2022-08-20T15:36:17.409Z,99732.16
2022-08-20T15:39:05.669Z,99731.41
2022-08-20T15:41:53.810Z,99726.25
2022-08-20T15:44:42.786Z,99722.34
2022-08-20T15:47:34.880Z,99713.34
2022-08-20T15:50:38.333Z,99711.88
2022-08-20T15:53:34.034Z,99709.81
2022-08-20T15:56:41.505Z,99722.13
2022-08-20T15:59:55.446Z,99720.91
2022-08-20T16:02:58.679Z,99726.53
2022-08-20T16:05:55.326Z,99726.56
2022-08-20T16:09:01.172Z,99732.75
2022-08-20T16:11:55.800Z,99716.50
2022-08-20T16:14:48.522Z,99728.66
2022-08-20T16:17:41.246Z,99743.63
2022-08-20T16:20:35.615Z,99743.13
2022-08-20T16:23:29.841Z,99740.53
2022-08-20T16:26:35.373Z,99728.69
2022-08-20T16:29:27.434Z,99740.78
2022-08-20T16:32:26.264Z,99750.56
2022-08-20T16:35:33.909Z,99750.06
2022-08-20T16:38:33.144Z,99753.41
2022-08-20T16:41:29.709Z,99754.69
2022-08-20T16:44:25.381Z,99751.09
2022-08-20T16:47:19.065Z,99757.22
2022-08-20T16:50:11.068Z,99763.69
2022-08-20T16:52:59.144Z,99761.91
2022-08-20T16:55:47.724Z,99758.28
2022-08-20T16:58:37.371Z,99769.41
2022-08-20T17:01:27.523Z,99770.69
2022-08-20T17:04:21.780Z,99767.47
2022-08-20T17:07:11.758Z,99770.06
2022-08-20T17:10:12.333Z,99763.44
2022-08-20T17:13:04.657Z,99755.25
2022-08-20T17:15:59.699Z,99749.06
2022-08-20T17:18:50.145Z,99759.84
2022-08-20T17:21:39.068Z,99754.78
2022-08-20T17:24:31.036Z,99758.91
2022-08-20T17:27:34.986Z,99769.78
2022-08-20T17:30:28.712Z,99768.84
2022-08-20T17:33:26.931Z,99767.13
2022-08-20T17:36:20.678Z,99769.34
2022-08-20T17:39:17.638Z,99770.69
2022-08-20T17:42:08.905Z,99774.47
2022-08-20T17:45:04.425Z,99764.41
2022-08-20T17:47:53.708Z,99786.34
2022-08-20T17:50:44.462Z,99783.63
2022-08-20T17:53:35.068Z,99789.56
2022-08-20T17:56:27.171Z,99789.25
2022-08-20T17:59:33.639Z,99790.31
2022-08-20T18:02:26.564Z,99801.81
2022-08-20T18:05:20.255Z,99797.13
2022-08-20T18:08:20.604Z,99805.53
2022-08-20T18:11:23.154Z,99799.16
2022-08-20T18:14:43.239Z,99805.41
2022-08-20T18:17:50.637Z,99813.88
2022-08-20T18:20:50.267Z,99811.34
2022-08-20T18:23:47.654Z,99815.63
2022-08-20T18:26:45.202Z,99812.00
2022-08-20T18:29:36.955Z,99814.09
2022-08-20T18:32:32.246Z,99821.31
2022-08-20T18:35:23.521Z,99822.13
2022-08-20T18:38:14.167Z,99829.25
2022-08-20T18:41:13.670Z,99834.22
2022-08-20T18:44:09.158Z,99842.13
2022-08-20T18:47:00.569Z,99829.91
2022-08-20T18:50:00.231Z,99840.28
2022-08-20T18:52:50.924Z,99817.88
2022-08-20T18:55:42.691Z,99853.28
2022-08-20T18:58:34.205Z,99853.69
2022-08-20T19:01:22.353Z,99853.00
2022-08-20T19:04:27.167Z,99853.25
2022-08-20T19:07:17.281Z,99854.31
2022-08-20T19:10:28.072Z,99863.28
2022-08-20T19:13:47.254Z,99870.97
2022-08-20T19:16:40.568Z,99872.44
2022-08-20T19:19:32.812Z,99877.81
2022-08-20T19:22:22.103Z,99879.91
2022-08-20T19:25:20.797Z,99879.69
2022-08-20T19:28:20.930Z,99881.75
2022-08-20T19:31:12.703Z,99882.28
2022-08-20T19:34:04.009Z,99884.44
2022-08-20T19:37:34.994Z,99872.94
2022-08-20T19:40:28.561Z,99883.34
2022-08-20T19:43:21.666Z,99881.56
2022-08-20T19:46:11.716Z,99885.50
2022-08-20T19:49:17.975Z,99896.91
2022-08-20T19:52:22.504Z,99894.31
2022-08-20T19:55:21.515Z,99894.66
2022-08-20T19:58:20.469Z,99891.97
2022-08-20T20:01:21.100Z,99901.56
2022-08-20T20:04:18.105Z,99895.97
2022-08-20T20:07:09.174Z,99896.53
2022-08-20T20:09:59.221Z,99894.06
2022-08-20T20:12:48.702Z,99895.38
2022-08-20T20:15:39.255Z,99889.38
2022-08-20T20:18:32.477Z,99890.25
2022-08-20T20:21:24.851Z,99891.31
2022-08-20T20:24:23.266Z,99864.03
2022-08-20T20:27:20.297Z,99900.25
2022-08-20T20:30:13.680Z,99909.69
2022-08-20T20:33:11.420Z,99907.41
2022-08-20T20:36:06.862Z,99906.81
2022-08-20T20:38:56.704Z,99900.72
2022-08-20T20:41:52.549Z,99817.09
2022-08-20T20:44:43.214Z,99903.56
2022-08-20T20:47:36.012Z,99906.63
2022-08-20T20:50:30.729Z,99904.31
2022-08-20T20:53:51.080Z,99899.78
2022-08-20T20:56:43.958Z,99906.75
2022-08-20T20:59:34.425Z,99903.28
2022-08-20T21:02:23.284Z,99906.19
2022-08-20T21:05:12.815Z,99904.41
2022-08-20T21:08:03.834Z,99906.16
2022-08-20T21:10:53.176Z,99895.94
2022-08-20T21:13:41.148Z,99905.16
2022-08-20T21:16:34.131Z,99913.59
2022-08-20T21:19:22.574Z,99921.25
2022-08-20T21:22:10.630Z,99914.66
2022-08-20T21:24:58.652Z,99923.34
2022-08-20T21:27:50.681Z,99892.09
2022-08-20T21:30:38.665Z,99926.31
2022-08-20T21:33:26.656Z,99935.13
2022-08-20T21:36:16.448Z,99938.38
2022-08-20T21:39:04.745Z,99942.81
2022-08-20T21:41:52.927Z,99940.16
2022-08-20T21:44:47.959Z,99940.22
2022-08-20T21:47:37.791Z,99937.50
2022-08-20T21:50:26.687Z,99936.41
2022-08-20T21:53:14.670Z,99938.13
2022-08-20T21:56:03.245Z,99932.91
2022-08-20T21:58:53.738Z,99924.00
2022-08-20T22:01:44.664Z,99934.81
2022-08-20T22:04:35.495Z,99936.06
2022-08-20T22:07:24.180Z,99925.09
2022-08-20T22:10:13.972Z,99931.84
2022-08-20T22:13:02.722Z,99930.72
2022-08-20T22:15:50.793Z,99933.91
2022-08-20T22:18:43.213Z,99939.81
2022-08-20T22:21:33.891Z,99935.16
2022-08-20T22:24:30.023Z,99932.03
2022-08-20T22:27:18.032Z,99928.16
2022-08-20T22:30:07.513Z,99930.66
2022-08-20T22:32:58.979Z,99936.28
2022-08-20T22:35:54.830Z,99901.44
2022-08-20T22:38:42.828Z,99940.47
2022-08-20T22:41:30.810Z,99941.41
2022-08-20T22:44:18.776Z,99943.09
2022-08-20T22:47:08.948Z,99941.97
2022-08-20T22:49:58.379Z,99944.75
2022-08-20T22:52:47.721Z,99946.44
2022-08-20T22:55:36.107Z,99950.81
2022-08-20T22:58:31.445Z,99948.91
2022-08-20T23:01:20.929Z,99924.19
2022-08-20T23:04:14.196Z,99944.31
2022-08-20T23:07:03.587Z,99937.22
2022-08-20T23:09:52.913Z,99940.81
2022-08-20T23:12:40.919Z,99942.47
2022-08-20T23:15:30.236Z,99947.34
2022-08-20T23:18:20.548Z,99938.28
2022-08-20T23:21:08.606Z,99942.31
2022-08-20T23:23:56.644Z,99939.09
2022-08-20T23:26:52.742Z,99938.69
2022-08-20T23:29:41.507Z,99937.53
2022-08-20T23:32:29.543Z,99946.31
2022-08-20T23:35:18.273Z,99943.19
2022-08-20T23:38:06.684Z,99943.22
2022-08-20T23:40:54.687Z,99938.44
2022-08-20T23:43:44.032Z,99945.97
2022-08-20T23:46:36.058Z,99943.63
2022-08-20T23:49:24.074Z,99944.47
2022-08-20T23:52:12.093Z,99938.56
2022-08-20T23:55:00.286Z,99934.97
2022-08-20T23:57:48.269Z,99933.03
